TimeCDT,TemperatureF,Dew PointF,Humidity,Sea Level PressureIn,VisibilityMPH,Wind Direction,Wind SpeedMPH,Gust SpeedMPH,PrecipitationIn,Events,Conditions,WindDirDegrees,DateUTC
12:15 AM,54.9,30.9,40,30.11,10.0,South,8.1,-,N/A,,Clear,180,2013-10-08 05:15:00
12:35 AM,54.9,31.8,42,30.11,10.0,South,8.1,-,N/A,,Clear,190,2013-10-08 05:35:00
12:55 AM,54.9,32.4,42,30.11,10.0,South,8.1,-,N/A,,Clear,180,2013-10-08 05:55:00
1:15 AM,54.9,32.2,42,30.10,10.0,South,8.1,-,N/A,,Clear,190,2013-10-08 06:15:00
1:35 AM,54.9,32.4,42,30.09,10.0,South,8.1,-,N/A,,Clear,190,2013-10-08 06:35:00
1:55 AM,52.3,32.0,46,30.09,10.0,South,6.9,-,N/A,,Clear,180,2013-10-08 06:55:00
2:15 AM,52.3,32.9,48,30.09,10.0,South,6.9,-,N/A,,Clear,190,2013-10-08 07:15:00
2:35 AM,52.3,32.4,47,30.09,10.0,SSW,6.9,-,N/A,,Clear,200,2013-10-08 07:35:00
2:55 AM,51.1,32.0,48,30.08,10.0,South,6.9,-,N/A,,Clear,190,2013-10-08 07:55:00
3:15 AM,50.0,32.0,50,30.08,10.0,South,5.8,-,N/A,,Clear,190,2013-10-08 08:15:00
3:35 AM,50.0,32.2,50,30.07,10.0,SSW,5.8,-,N/A,,Clear,200,2013-10-08 08:35:00
3:55 AM,50.0,32.5,51,30.07,10.0,South,5.8,-,N/A,,Clear,190,2013-10-08 08:55:00
4:15 AM,50.0,32.4,51,30.06,10.0,South,6.9,-,N/A,,Clear,190,2013-10-08 09:15:00
4:35 AM,50.4,32.9,51,30.06,10.0,SSW,6.9,-,N/A,,Clear,200,2013-10-08 09:35:00
4:55 AM,50.0,33.1,52,30.06,10.0,South,6.9,-,N/A,,Clear,180,2013-10-08 09:55:00
5:15 AM,50.0,34.0,54,30.06,10.0,South,8.1,-,N/A,,Clear,180,2013-10-08 10:15:00
5:35 AM,50.0,35.2,57,30.06,10.0,South,6.9,-,N/A,,Clear,190,2013-10-08 10:35:00
5:55 AM,50.0,33.8,54,30.06,10.0,SSW,8.1,-,N/A,,Clear,200,2013-10-08 10:55:00
6:15 AM,50.0,34.3,55,30.06,10.0,SSW,6.9,-,N/A,,Clear,200,2013-10-08 11:15:00
6:35 AM,49.1,34.5,57,30.06,10.0,SSW,5.8,-,N/A,,Clear,210,2013-10-08 11:35:00
6:55 AM,47.3,33.8,59,30.07,10.0,SW,4.6,-,N/A,,Clear,220,2013-10-08 11:55:00
7:15 AM,44.8,32.4,62,30.07,10.0,SW,4.6,-,N/A,,Clear,230,2013-10-08 12:15:00
7:35 AM,45.1,32.5,61,30.06,10.0,SW,4.6,-,N/A,,Clear,230,2013-10-08 12:35:00
7:55 AM,43.7,32.0,63,30.06,10.0,SSW,3.5,-,N/A,,Clear,210,2013-10-08 12:55:00
8:15 AM,44.2,32.2,63,30.06,10.0,SSW,3.5,-,N/A,,Clear,210,2013-10-08 13:15:00
8:35 AM,50.0,34.9,56,30.06,10.0,SSW,4.6,-,N/A,,Clear,210,2013-10-08 13:35:00
8:55 AM,53.8,34.0,47,30.06,10.0,SSW,3.5,-,N/A,,Clear,200,2013-10-08 13:55:00
9:15 AM,55.9,32.2,41,30.06,10.0,SSW,5.8,-,N/A,,Clear,210,2013-10-08 14:15:00
9:35 AM,59.9,32.0,35,30.06,10.0,SSW,8.1,-,N/A,,Clear,210,2013-10-08 14:35:00
9:55 AM,62.8,31.1,30,30.06,10.0,SW,11.5,-,N/A,,Clear,220,2013-10-08 14:55:00
10:15 AM,67.5,31.5,26,30.07,10.0,SW,12.7,-,N/A,,Clear,220,2013-10-08 15:15:00
10:35 AM,70.0,32.0,25,30.07,10.0,SW,11.5,-,N/A,,Clear,220,2013-10-08 15:35:00
10:55 AM,71.4,31.5,23,30.07,10.0,SSW,17.3,-,N/A,,Clear,200,2013-10-08 15:55:00
11:15 AM,74.7,31.3,20,30.07,10.0,South,16.1,20.7,N/A,,Clear,190,2013-10-08 16:15:00
11:35 AM,72.9,30.2,21,30.06,10.0,SSW,15.0,20.7,N/A,,Clear,200,2013-10-08 16:35:00
11:55 AM,75.2,30.6,19,30.06,10.0,SSW,15.0,20.7,N/A,,Clear,210,2013-10-08 16:55:00
12:15 PM,75.7,28.4,17,30.06,10.0,SSW,19.6,25.3,N/A,,Clear,200,2013-10-08 17:15:00
12:35 PM,77.5,29.7,17,30.04,10.0,SSW,17.3,-,N/A,,Clear,200,2013-10-08 17:35:00
12:55 PM,77.5,29.5,17,30.04,10.0,SSW,15.0,24.2,N/A,,Clear,210,2013-10-08 17:55:00
1:15 PM,77.5,28.9,17,30.03,10.0,SSW,15.0,23.0,N/A,,Clear,200,2013-10-08 18:15:00
1:35 PM,77.5,28.2,16,30.02,10.0,South,17.3,-,N/A,,Clear,190,2013-10-08 18:35:00
1:55 PM,79.5,27.9,15,30.01,10.0,SSW,12.7,25.3,N/A,,Clear,200,2013-10-08 18:55:00
2:15 PM,80.1,26.4,14,29.99,10.0,South,17.3,24.2,N/A,,Clear,180,2013-10-08 19:15:00
2:35 PM,80.4,25.9,13,29.98,10.0,SSW,15.0,23.0,N/A,,Clear,200,2013-10-08 19:35:00
2:55 PM,81.5,25.2,13,29.97,10.0,South,16.1,21.9,N/A,,Clear,180,2013-10-08 19:55:00
3:15 PM,81.5,24.6,12,29.96,10.0,South,13.8,21.9,N/A,,Clear,180,2013-10-08 20:15:00
3:35 PM,81.0,24.8,13,29.96,10.0,South,16.1,20.7,N/A,,Clear,180,2013-10-08 20:35:00
3:55 PM,81.5,25.5,13,29.96,10.0,SSW,17.3,-,N/A,,Clear,200,2013-10-08 20:55:00
4:15 PM,80.1,25.9,14,29.96,10.0,South,18.4,24.2,N/A,,Clear,190,2013-10-08 21:15:00
4:35 PM,78.3,25.2,14,29.95,10.0,South,12.7,19.6,N/A,,Clear,190,2013-10-08 21:35:00
4:55 PM,79.2,28.2,15,29.95,10.0,South,15.0,-,N/A,,Clear,170,2013-10-08 21:55:00
5:15 PM,80.6,26.6,14,29.94,10.0,South,17.3,21.9,N/A,,Clear,180,2013-10-08 22:15:00
5:35 PM,77.5,26.4,15,29.94,10.0,South,13.8,19.6,N/A,,Clear,170,2013-10-08 22:35:00
5:55 PM,77.5,27.7,16,29.93,10.0,South,12.7,-,N/A,,Clear,170,2013-10-08 22:55:00
6:15 PM,77.5,27.3,16,29.93,10.0,South,12.7,18.4,N/A,,Clear,170,2013-10-08 23:15:00
6:35 PM,77.5,26.2,15,29.93,10.0,South,15.0,20.7,N/A,,Clear,170,2013-10-08 23:35:00
6:55 PM,77.5,27.5,16,29.93,10.0,South,15.0,-,N/A,,Clear,170,2013-10-08 23:55:00
7:15 PM,75.2,28.8,18,29.93,10.0,SSE,9.2,-,N/A,,Clear,160,2013-10-09 00:15:00
7:35 PM,70.5,28.2,21,29.93,7.0,SSE,8.1,-,N/A,,Clear,160,2013-10-09 00:35:00
7:55 PM,64.9,30.0,27,29.94,10.0,SSE,6.9,-,N/A,,Clear,160,2013-10-09 00:55:00
8:15 PM,62.6,29.3,28,29.94,10.0,SSE,6.9,-,N/A,,Clear,160,2013-10-09 01:15:00
8:35 PM,61.2,29.1,30,29.94,5.0,SSE,6.9,-,N/A,,Haze,160,2013-10-09 01:35:00
8:55 PM,61.3,28.9,29,29.95,7.0,SSE,9.2,-,N/A,,Clear,160,2013-10-09 01:55:00
9:15 PM,60.3,29.7,31,29.95,10.0,SSE,9.2,-,N/A,,Clear,160,2013-10-09 02:15:00
9:35 PM,59.9,30.4,33,29.95,10.0,SSE,8.1,-,N/A,,Clear,160,2013-10-09 02:35:00
9:55 PM,59.9,31.8,35,29.95,10.0,SSE,9.2,-,N/A,,Clear,160,2013-10-09 02:55:00
10:15 PM,61.2,32.0,33,29.95,10.0,SSE,11.5,-,N/A,,Clear,160,2013-10-09 03:15:00
10:35 PM,59.9,32.0,35,29.95,10.0,SSE,9.2,-,N/A,,Clear,160,2013-10-09 03:35:00
10:55 PM,57.9,32.0,37,29.95,10.0,South,8.1,-,N/A,,Clear,170,2013-10-09 03:55:00
11:15 PM,57.4,32.4,39,29.95,10.0,SSE,9.2,-,N/A,,Clear,160,2013-10-09 04:15:00
11:35 PM,57.4,33.1,40,29.96,10.0,South,9.2,-,N/A,,Clear,170,2013-10-09 04:35:00
11:55 PM,57.4,33.4,40,29.95,10.0,South,9.2,-,N/A,,Clear,170,2013-10-09 04:55:00